createdAt,value
2023-04-09T00:00:14.432Z,81.97
2023-04-09T00:01:15.949Z,81.83
2023-04-09T00:02:17.647Z,81.72
2023-04-09T00:03:19.250Z,81.35
2023-04-09T00:04:22.453Z,81.29
2023-04-09T00:05:24.104Z,81.41
2023-04-09T00:06:26.010Z,81.07
2023-04-09T00:07:28.126Z,81.29
2023-04-09T00:08:29.785Z,81.24
2023-04-09T00:09:32.025Z,81.42
2023-04-09T00:10:33.591Z,81.55
2023-04-09T00:11:35.533Z,81.69
2023-04-09T00:12:37.819Z,81.44
2023-04-09T00:13:40.053Z,80.82
2023-04-09T00:14:41.770Z,81.02
2023-04-09T00:15:43.260Z,81.00
2023-04-09T00:16:44.939Z,80.86
2023-04-09T00:17:46.576Z,82.57
2023-04-09T00:18:48.220Z,83.69
2023-04-09T00:19:49.790Z,84.93
2023-04-09T00:20:51.456Z,85.77
2023-04-09T00:21:53.032Z,86.39
2023-04-09T00:22:55.583Z,86.37
2023-04-09T00:23:57.196Z,87.31
2023-04-09T00:24:58.864Z,88.69
2023-04-09T00:26:01.314Z,90.44
2023-04-09T00:27:02.914Z,90.77
2023-04-09T00:28:04.518Z,91.57
2023-04-09T00:29:06.230Z,92.23
2023-04-09T00:30:08.605Z,92.98
2023-04-09T00:31:10.882Z,94.45
2023-04-09T00:32:12.525Z,94.76
2023-04-09T00:33:14.041Z,94.99
2023-04-09T00:34:15.890Z,96.28
2023-04-09T00:35:17.633Z,96.33
2023-04-09T00:36:19.191Z,97.34
2023-04-09T00:37:21.043Z,98.53
2023-04-09T00:38:22.751Z,99.30
2023-04-09T00:39:24.342Z,99.43
2023-04-09T00:40:26.117Z,100.00
2023-04-09T00:41:27.613Z,99.92
2023-04-09T00:42:36.464Z,99.83
2023-04-09T00:43:38.001Z,99.21
2023-04-09T00:44:39.537Z,99.15
2023-04-09T00:45:41.469Z,98.26
2023-04-09T00:46:43.133Z,98.22
2023-04-09T00:47:46.336Z,96.66
2023-04-09T00:48:47.865Z,96.10
2023-04-09T00:49:49.564Z,95.05
2023-04-09T00:50:51.455Z,94.25
2023-04-09T00:51:53.753Z,94.09
2023-04-09T00:52:56.168Z,93.16
2023-04-09T00:53:57.910Z,92.85
2023-04-09T00:55:01.344Z,92.45
2023-04-09T00:56:04.235Z,91.98
2023-04-09T00:57:06.033Z,91.27
2023-04-09T00:58:07.920Z,90.41
2023-04-09T00:59:09.438Z,89.98
2023-04-09T01:00:13.100Z,89.95
2023-04-09T01:01:14.803Z,89.82
2023-04-09T01:02:16.726Z,89.65
2023-04-09T01:03:18.532Z,89.32
2023-04-09T01:04:21.234Z,89.05
2023-04-09T01:05:25.170Z,88.81
2023-04-09T01:06:49.915Z,88.60
2023-04-09T01:08:06.571Z,88.50
2023-04-09T01:09:18.900Z,89.61
2023-04-09T01:10:32.542Z,89.71
2023-04-09T01:11:56.763Z,90.36
2023-04-09T01:13:08.913Z,90.21
2023-04-09T01:14:29.232Z,91.13
2023-04-09T01:15:36.958Z,90.29
2023-04-09T01:16:42.595Z,90.93
2023-04-09T01:17:53.106Z,90.56
2023-04-09T01:19:08.130Z,90.36
2023-04-09T01:20:09.822Z,90.81
2023-04-09T01:21:16.272Z,91.57
2023-04-09T01:22:41.293Z,92.63
2023-04-09T01:24:09.827Z,91.83
2023-04-09T01:25:30.312Z,92.18
2023-04-09T01:26:50.381Z,91.83
2023-04-09T01:28:19.072Z,92.51
2023-04-09T01:29:22.851Z,92.35
2023-04-09T01:30:26.947Z,92.95
2023-04-09T01:31:32.042Z,93.52
2023-04-09T01:32:37.152Z,93.16
2023-04-09T01:33:40.049Z,92.82
2023-04-09T01:34:42.948Z,92.40
2023-04-09T01:35:46.599Z,92.32
2023-04-09T01:36:53.945Z,91.71
2023-04-09T01:37:57.220Z,91.43
2023-04-09T01:39:01.485Z,91.05
2023-04-09T01:40:04.798Z,90.70
2023-04-09T01:41:07.648Z,90.62
2023-04-09T01:42:12.264Z,90.36
2023-04-09T01:43:14.966Z,90.03
2023-04-09T01:44:17.810Z,90.39
2023-04-09T01:45:21.033Z,90.59
2023-04-09T01:46:23.513Z,90.97
2023-04-09T01:47:26.244Z,91.26
2023-04-09T01:48:29.793Z,91.30
2023-04-09T01:49:31.815Z,91.21
2023-04-09T01:50:33.874Z,91.32
2023-04-09T01:51:36.389Z,91.59
2023-04-09T01:52:38.298Z,90.93
2023-04-09T01:53:40.966Z,91.32
2023-04-09T01:54:43.252Z,91.78
2023-04-09T01:55:44.882Z,92.68
2023-04-09T01:56:48.445Z,93.13
2023-04-09T01:57:50.025Z,93.78
2023-04-09T01:58:52.831Z,93.51
2023-04-09T01:59:55.177Z,94.00
2023-04-09T02:01:05.602Z,94.04
2023-04-09T02:02:15.024Z,93.83
2023-04-09T02:03:24.547Z,94.26
2023-04-09T02:04:34.057Z,94.38
2023-04-09T02:05:45.257Z,94.45
2023-04-09T02:07:10.125Z,94.47
2023-04-09T02:08:15.733Z,94.77
2023-04-09T02:09:20.308Z,94.56
2023-04-09T02:10:26.483Z,93.81
2023-04-09T02:11:32.856Z,93.12
2023-04-09T02:12:38.397Z,92.39
2023-04-09T02:13:41.678Z,91.91
2023-04-09T02:14:46.809Z,91.16
2023-04-09T02:15:49.509Z,90.61
2023-04-09T02:16:51.190Z,89.68
2023-04-09T02:17:53.652Z,89.53
2023-04-09T02:19:01.269Z,89.27
2023-04-09T02:20:03.103Z,89.12
2023-04-09T02:21:05.961Z,88.76
2023-04-09T02:22:07.845Z,88.64
2023-04-09T02:23:09.617Z,88.35
2023-04-09T02:24:11.211Z,88.44
2023-04-09T02:25:13.167Z,88.18
2023-04-09T02:26:14.757Z,88.55
2023-04-09T02:27:16.493Z,88.48
2023-04-09T02:28:18.328Z,87.99
2023-04-09T02:29:19.883Z,87.60
2023-04-09T02:30:21.545Z,86.98
2023-04-09T02:31:23.226Z,87.42
2023-04-09T02:32:24.802Z,87.30
2023-04-09T02:33:26.414Z,87.08
2023-04-09T02:34:28.479Z,87.26
2023-04-09T02:35:30.011Z,86.94
2023-04-09T02:36:31.634Z,87.44
2023-04-09T02:37:33.200Z,87.24
2023-04-09T02:38:34.737Z,86.93
2023-04-09T02:39:36.243Z,85.79
2023-04-09T02:40:37.778Z,85.18
2023-04-09T02:41:39.264Z,85.21
2023-04-09T02:42:40.809Z,84.70
2023-04-09T02:43:42.390Z,84.57
2023-04-09T02:44:44.438Z,84.63
2023-04-09T02:45:45.941Z,84.75
2023-04-09T02:46:48.187Z,85.18
2023-04-09T02:47:49.733Z,85.47
2023-04-09T02:48:51.525Z,85.79
2023-04-09T02:49:53.264Z,85.69
2023-04-09T02:50:55.008Z,85.90
2023-04-09T02:51:56.577Z,86.37
2023-04-09T02:52:58.160Z,86.14
2023-04-09T02:53:59.685Z,86.40
2023-04-09T02:55:01.265Z,86.64
2023-04-09T02:56:02.931Z,86.37
2023-04-09T02:57:04.538Z,86.41
2023-04-09T02:58:06.149Z,86.00
2023-04-09T02:59:07.755Z,86.95
2023-04-09T03:00:10.106Z,86.92
2023-04-09T03:01:11.793Z,87.36
2023-04-09T03:02:13.569Z,87.80
2023-04-09T03:03:15.488Z,88.57
2023-04-09T03:04:17.165Z,89.14
2023-04-09T03:05:18.720Z,90.08
2023-04-09T03:06:20.278Z,91.04
2023-04-09T03:07:22.742Z,91.74
2023-04-09T03:08:24.305Z,92.49
2023-04-09T03:09:25.844Z,92.80
2023-04-09T03:10:27.400Z,92.67
2023-04-09T03:11:28.916Z,92.54
2023-04-09T03:12:30.459Z,92.52
2023-04-09T03:13:32.014Z,92.14
2023-04-09T03:14:35.190Z,92.60
2023-04-09T03:15:36.959Z,93.55
2023-04-09T03:16:38.815Z,93.86
2023-04-09T03:17:40.540Z,94.12
2023-04-09T03:18:42.110Z,93.91
2023-04-09T03:19:43.693Z,94.23
2023-04-09T03:20:45.817Z,94.00
2023-04-09T03:21:49.307Z,93.11
2023-04-09T03:22:50.863Z,92.66
2023-04-09T03:23:52.442Z,92.54
2023-04-09T03:24:54.032Z,92.58
2023-04-09T03:26:03.819Z,91.92
2023-04-09T03:27:05.484Z,91.08
2023-04-09T03:28:07.076Z,91.84
2023-04-09T03:29:08.635Z,91.28
2023-04-09T03:30:11.062Z,91.07
2023-04-09T03:31:14.123Z,90.76
2023-04-09T03:32:17.334Z,90.39
2023-04-09T03:33:20.578Z,90.66
2023-04-09T03:34:22.122Z,90.19
2023-04-09T03:35:23.782Z,90.36
2023-04-09T03:36:25.484Z,90.73
2023-04-09T03:37:27.047Z,90.02
2023-04-09T03:38:28.577Z,89.95
2023-04-09T03:39:32.930Z,89.97
2023-04-09T03:40:34.491Z,89.30
2023-04-09T03:41:36.117Z,88.60
2023-04-09T03:42:37.722Z,87.13
2023-04-09T03:43:39.291Z,86.33
2023-04-09T03:44:40.902Z,86.54
2023-04-09T03:45:42.460Z,86.60
2023-04-09T03:46:44.124Z,86.70
2023-04-09T03:47:45.698Z,87.49
2023-04-09T03:48:47.323Z,87.08
2023-04-09T03:49:48.830Z,87.61
2023-04-09T03:50:50.389Z,88.42
2023-04-09T03:51:51.958Z,88.53
2023-04-09T03:52:53.490Z,88.51
2023-04-09T03:53:55.037Z,88.55
2023-04-09T03:54:56.554Z,88.83
2023-04-09T03:55:58.184Z,88.36
2023-04-09T03:57:00.112Z,88.97
2023-04-09T03:58:01.712Z,88.76
2023-04-09T03:59:03.223Z,88.86
2023-04-09T04:00:05.380Z,88.63
2023-04-09T04:01:06.970Z,88.27
2023-04-09T04:02:08.613Z,88.27
2023-04-09T04:03:12.007Z,88.04
2023-04-09T04:04:14.237Z,87.88
2023-04-09T04:05:15.846Z,87.69
2023-04-09T04:06:17.409Z,87.57
2023-04-09T04:07:18.920Z,86.85
2023-04-09T04:08:20.451Z,86.69
2023-04-09T04:09:22.224Z,86.50
2023-04-09T04:10:23.757Z,86.86
2023-04-09T04:11:25.426Z,86.83
2023-04-09T04:12:26.977Z,87.02
2023-04-09T04:13:28.593Z,87.48
2023-04-09T04:14:30.243Z,86.99
2023-04-09T04:15:31.756Z,86.88
2023-04-09T04:16:33.381Z,86.93
2023-04-09T04:17:35.675Z,86.75
2023-04-09T04:18:37.802Z,86.08
2023-04-09T04:19:39.396Z,86.20
2023-04-09T04:20:41.061Z,86.58
2023-04-09T04:21:42.572Z,86.13
2023-04-09T04:22:44.085Z,85.92
2023-04-09T04:23:45.720Z,86.43
2023-04-09T04:24:47.299Z,86.26
2023-04-09T04:25:48.867Z,85.61
2023-04-09T04:26:50.683Z,85.75
2023-04-09T04:27:52.249Z,86.01
2023-04-09T04:28:54.034Z,85.89
2023-04-09T04:29:58.782Z,85.41
2023-04-09T04:31:00.405Z,85.58
2023-04-09T04:32:02.036Z,85.28
2023-04-09T04:33:03.717Z,85.68
2023-04-09T04:34:05.279Z,85.03
2023-04-09T04:35:07.235Z,85.57
2023-04-09T04:36:13.284Z,85.49
2023-04-09T04:37:14.863Z,85.21
2023-04-09T04:38:16.381Z,86.09
2023-04-09T04:39:17.913Z,86.01
2023-04-09T04:40:19.471Z,86.79
2023-04-09T04:41:21.174Z,87.61
2023-04-09T04:42:23.284Z,87.08
2023-04-09T04:43:24.870Z,86.99
2023-04-09T04:44:26.424Z,86.33
2023-04-09T04:45:27.990Z,86.14
2023-04-09T04:46:29.534Z,86.23
2023-04-09T04:47:31.084Z,86.16
2023-04-09T04:48:32.710Z,86.22
2023-04-09T04:49:34.244Z,85.78
2023-04-09T04:50:35.822Z,86.27
2023-04-09T04:51:37.351Z,85.70
2023-04-09T04:52:40.412Z,85.87
2023-04-09T04:53:41.941Z,85.85
2023-04-09T04:54:43.765Z,85.73
2023-04-09T04:55:45.316Z,85.56
2023-04-09T04:56:46.853Z,86.14
2023-04-09T04:57:50.872Z,86.15
2023-04-09T04:58:52.641Z,86.35
2023-04-09T04:59:54.484Z,86.15
2023-04-09T05:00:56.054Z,86.06
2023-04-09T05:01:57.651Z,86.76
2023-04-09T05:02:59.460Z,86.99
2023-04-09T05:04:03.227Z,86.72
2023-04-09T05:05:05.216Z,87.38
2023-04-09T05:06:06.818Z,87.73
2023-04-09T05:07:08.372Z,88.19
2023-04-09T05:08:09.925Z,88.55
2023-04-09T05:09:12.150Z,88.67
2023-04-09T05:10:15.273Z,89.07
2023-04-09T05:11:17.014Z,89.15
2023-04-09T05:12:20.113Z,89.50
2023-04-09T05:13:24.015Z,89.02
2023-04-09T05:14:25.814Z,89.24
2023-04-09T05:15:27.649Z,90.19
2023-04-09T05:16:29.227Z,90.48
2023-04-09T05:17:31.092Z,90.49
2023-04-09T05:18:32.636Z,90.30
2023-04-09T05:19:34.190Z,90.38
2023-04-09T05:20:36.427Z,90.99
2023-04-09T05:21:38.027Z,91.03
2023-04-09T05:22:39.668Z,90.83
2023-04-09T05:23:41.469Z,91.23
2023-04-09T05:24:43.080Z,91.56
2023-04-09T05:25:44.675Z,91.44
2023-04-09T05:26:46.180Z,91.23
2023-04-09T05:27:47.710Z,90.98
2023-04-09T05:28:49.757Z,90.31
2023-04-09T05:29:51.593Z,90.37
2023-04-09T05:30:53.282Z,89.85
2023-04-09T05:31:54.873Z,89.02
2023-04-09T05:32:56.485Z,88.95
2023-04-09T05:33:58.084Z,89.42
2023-04-09T05:34:59.635Z,87.83
2023-04-09T05:36:01.233Z,88.35
2023-04-09T05:37:02.793Z,88.14
2023-04-09T05:38:04.395Z,87.45
2023-04-09T05:39:05.997Z,87.67
2023-04-09T05:40:08.193Z,87.51
2023-04-09T05:41:10.040Z,87.99
2023-04-09T05:42:11.750Z,88.45
2023-04-09T05:43:13.329Z,89.63
2023-04-09T05:44:15.001Z,89.65
2023-04-09T05:45:16.581Z,89.15
2023-04-09T05:46:18.140Z,89.73
2023-04-09T05:47:19.715Z,89.25
2023-04-09T05:48:21.306Z,87.96
2023-04-09T05:49:22.912Z,87.54
2023-04-09T05:50:24.499Z,88.31
2023-04-09T05:51:26.276Z,88.77
2023-04-09T05:52:28.579Z,88.10
2023-04-09T05:53:32.127Z,87.61
2023-04-09T05:54:33.769Z,87.35
2023-04-09T05:55:35.297Z,88.08
2023-04-09T05:56:36.867Z,87.65
2023-04-09T05:57:38.476Z,88.16
2023-04-09T05:58:40.017Z,88.64
2023-04-09T05:59:41.579Z,89.71
2023-04-09T06:00:43.148Z,88.61
2023-04-09T06:01:44.729Z,88.93
2023-04-09T06:02:46.491Z,89.89
2023-04-09T06:03:48.270Z,89.91
2023-04-09T06:04:50.002Z,89.82
2023-04-09T06:05:51.617Z,88.24
2023-04-09T06:06:53.202Z,88.19
2023-04-09T06:07:54.755Z,87.91
2023-04-09T06:08:56.333Z,87.75
2023-04-09T06:09:57.987Z,87.79
2023-04-09T06:10:59.648Z,85.72
2023-04-09T06:12:01.240Z,85.14
2023-04-09T06:13:02.772Z,84.99
2023-04-09T06:14:04.301Z,83.75
2023-04-09T06:15:06.329Z,82.28
2023-04-09T06:16:08.736Z,82.92
2023-04-09T06:17:10.356Z,82.96
2023-04-09T06:18:11.865Z,83.12
2023-04-09T06:19:16.194Z,82.96
2023-04-09T06:20:17.858Z,84.00
2023-04-09T06:21:19.605Z,84.55
2023-04-09T06:22:21.170Z,85.30
2023-04-09T06:23:22.669Z,85.09
2023-04-09T06:24:24.342Z,84.31
2023-04-09T06:25:26.084Z,84.45
2023-04-09T06:26:27.723Z,82.24
2023-04-09T06:27:29.280Z,82.45
2023-04-09T06:28:32.160Z,82.64
2023-04-09T06:29:33.841Z,83.31
2023-04-09T06:30:37.031Z,83.00
2023-04-09T06:31:38.847Z,83.80
2023-04-09T06:32:52.985Z,82.72
2023-04-09T06:33:56.102Z,81.75
2023-04-09T06:34:58.090Z,80.46
2023-04-09T06:35:59.671Z,79.88
2023-04-09T06:37:01.321Z,79.45
2023-04-09T06:38:02.872Z,79.71
2023-04-09T06:39:04.589Z,79.59
2023-04-09T06:40:07.408Z,78.87
2023-04-09T06:41:09.197Z,77.58
2023-04-09T06:42:10.820Z,78.51
2023-04-09T06:43:12.315Z,77.07
2023-04-09T06:44:14.021Z,77.02
2023-04-09T06:45:15.799Z,77.69
2023-04-09T06:46:20.142Z,76.89
2023-04-09T06:47:21.860Z,75.71
2023-04-09T06:48:23.371Z,75.96
2023-04-09T06:49:24.936Z,75.82
2023-04-09T06:50:26.901Z,76.23
2023-04-09T06:51:28.464Z,77.06
2023-04-09T06:52:30.345Z,76.45
2023-04-09T06:53:32.022Z,76.19
2023-04-09T06:54:33.617Z,74.46
2023-04-09T06:55:35.327Z,75.68
2023-04-09T06:56:36.897Z,75.37
2023-04-09T06:57:39.294Z,74.01
2023-04-09T06:58:40.933Z,74.21
2023-04-09T06:59:42.442Z,74.32
2023-04-09T07:00:44.014Z,73.33
2023-04-09T07:01:45.927Z,73.64
2023-04-09T07:02:47.683Z,71.88
2023-04-09T07:03:49.576Z,72.46
2023-04-09T07:04:51.531Z,73.25
2023-04-09T07:05:54.089Z,74.77
2023-04-09T07:06:56.927Z,74.95
2023-04-09T07:07:58.461Z,74.97
2023-04-09T07:09:00.005Z,74.51
2023-04-09T07:10:01.796Z,73.51
2023-04-09T07:11:03.584Z,74.32
2023-04-09T07:12:05.206Z,73.91
2023-04-09T07:13:07.250Z,73.33
2023-04-09T07:14:08.796Z,73.77
2023-04-09T07:15:10.513Z,72.70
2023-04-09T07:16:12.124Z,72.51
2023-04-09T07:17:13.667Z,72.03
2023-04-09T07:18:15.318Z,72.95
2023-04-09T07:19:16.852Z,71.46
2023-04-09T07:20:20.700Z,72.15
2023-04-09T07:21:22.385Z,70.71
2023-04-09T07:22:26.757Z,70.63
2023-04-09T07:23:28.282Z,70.04
2023-04-09T07:24:29.810Z,71.70
2023-04-09T07:25:31.484Z,70.81
2023-04-09T07:26:33.417Z,70.11
2023-04-09T07:27:35.317Z,70.67
2023-04-09T07:28:37.036Z,71.33
2023-04-09T07:29:38.610Z,70.42
2023-04-09T07:30:40.447Z,69.44
2023-04-09T07:31:42.035Z,69.10
2023-04-09T07:32:43.801Z,71.09
2023-04-09T07:33:45.439Z,70.43
2023-04-09T07:34:46.957Z,69.81
2023-04-09T07:35:48.557Z,70.49
2023-04-09T07:36:50.279Z,70.96
2023-04-09T07:37:51.905Z,71.01
2023-04-09T07:38:53.812Z,71.09
2023-04-09T07:39:55.666Z,70.54
2023-04-09T07:40:57.278Z,71.30
2023-04-09T07:42:02.816Z,71.04
2023-04-09T07:43:05.874Z,70.64
2023-04-09T07:44:07.569Z,70.29
2023-04-09T07:45:09.405Z,70.46
2023-04-09T07:46:11.186Z,70.36
2023-04-09T07:47:13.017Z,70.15
2023-04-09T07:48:14.609Z,68.47
2023-04-09T07:49:17.630Z,67.18
2023-04-09T07:50:19.212Z,66.93
2023-04-09T07:51:20.793Z,67.70
2023-04-09T07:52:22.353Z,68.54
2023-04-09T07:53:23.904Z,68.43
2023-04-09T07:54:25.513Z,69.58
2023-04-09T07:55:28.404Z,68.59
2023-04-09T07:56:29.905Z,69.02
2023-04-09T07:57:33.092Z,70.84
2023-04-09T07:58:34.652Z,72.61
2023-04-09T07:59:36.498Z,71.17
2023-04-09T08:00:38.155Z,72.42
2023-04-09T08:01:39.788Z,73.35
2023-04-09T08:02:42.048Z,73.46
2023-04-09T08:03:43.945Z,72.71
2023-04-09T08:04:45.879Z,72.33
2023-04-09T08:05:47.633Z,72.09
2023-04-09T08:06:52.298Z,70.35
2023-04-09T08:07:53.835Z,71.21
2023-04-09T08:08:55.344Z,71.08
2023-04-09T08:09:56.888Z,70.97
2023-04-09T08:10:58.444Z,72.48
2023-04-09T08:12:01.160Z,71.95
2023-04-09T08:13:02.751Z,71.25
2023-04-09T08:14:06.240Z,70.84
2023-04-09T08:15:08.375Z,70.81
2023-04-09T08:16:09.971Z,70.70
2023-04-09T08:17:11.501Z,69.49
2023-04-09T08:18:13.006Z,69.94
2023-04-09T08:19:16.460Z,70.11
2023-04-09T08:20:18.109Z,71.12
2023-04-09T08:21:19.981Z,71.72
2023-04-09T08:22:21.680Z,72.51
2023-04-09T08:23:23.214Z,72.75
2023-04-09T08:24:24.953Z,71.35
2023-04-09T08:25:26.477Z,71.05
2023-04-09T08:26:27.985Z,71.64
2023-04-09T08:27:29.619Z,71.78
2023-04-09T08:28:31.273Z,72.25
2023-04-09T08:29:34.513Z,71.66
2023-04-09T08:30:36.373Z,71.33
2023-04-09T08:31:38.027Z,69.05
2023-04-09T08:32:39.719Z,68.40
2023-04-09T08:33:41.318Z,69.62
2023-04-09T08:34:42.973Z,69.35
2023-04-09T08:35:44.836Z,69.30
2023-04-09T08:36:47.246Z,68.98
2023-04-09T08:37:49.168Z,68.90
2023-04-09T08:38:50.920Z,69.89
2023-04-09T08:39:52.588Z,70.92
2023-04-09T08:40:54.117Z,70.63
2023-04-09T08:42:00.018Z,70.68
2023-04-09T08:43:05.622Z,70.00
2023-04-09T08:44:07.277Z,69.81
2023-04-09T08:45:09.292Z,68.58
2023-04-09T08:46:11.053Z,69.36
2023-04-09T08:47:13.436Z,69.27
2023-04-09T08:48:16.116Z,68.67
2023-04-09T08:49:17.752Z,68.18
2023-04-09T08:50:19.742Z,69.00
2023-04-09T08:51:24.749Z,69.25
2023-04-09T08:52:33.666Z,69.02
2023-04-09T08:53:36.224Z,69.42
2023-04-09T08:54:37.984Z,69.05
2023-04-09T08:55:39.937Z,68.29
2023-04-09T08:56:41.577Z,68.84
2023-04-09T08:57:43.522Z,68.02
2023-04-09T08:58:46.905Z,66.85
2023-04-09T08:59:48.473Z,69.04
2023-04-09T09:00:49.994Z,68.54
2023-04-09T09:02:07.547Z,67.81
2023-04-09T09:03:15.986Z,67.60
2023-04-09T09:04:17.630Z,67.51
2023-04-09T09:05:35.841Z,66.16
2023-04-09T09:06:39.490Z,66.38
2023-04-09T09:07:53.558Z,67.96
2023-04-09T09:09:05.463Z,67.82
2023-04-09T09:10:07.969Z,67.33
2023-04-09T09:11:09.470Z,67.11
2023-04-09T09:12:11.034Z,66.64
2023-04-09T09:13:26.413Z,67.55
2023-04-09T09:14:32.859Z,67.91
2023-04-09T09:15:34.404Z,66.21
2023-04-09T09:16:40.225Z,65.20
2023-04-09T09:17:55.073Z,65.44
2023-04-09T09:18:57.505Z,64.25
2023-04-09T09:19:59.359Z,64.15
2023-04-09T09:21:11.772Z,64.17
2023-04-09T09:22:13.382Z,64.09
2023-04-09T09:23:14.996Z,65.11
2023-04-09T09:24:17.963Z,65.53
2023-04-09T09:25:23.352Z,66.90
2023-04-09T09:26:27.611Z,66.71
2023-04-09T09:27:40.573Z,68.38
2023-04-09T09:28:42.768Z,67.73
2023-04-09T09:29:45.194Z,66.99
2023-04-09T09:30:48.697Z,67.07
2023-04-09T09:31:53.368Z,66.72
2023-04-09T09:33:05.879Z,68.04
2023-04-09T09:34:10.281Z,69.07
2023-04-09T09:35:12.098Z,67.54
2023-04-09T09:36:14.306Z,67.64
2023-04-09T09:37:28.103Z,67.09
2023-04-09T09:38:30.588Z,67.22
2023-04-09T09:39:46.676Z,67.17
2023-04-09T09:40:49.506Z,67.84
2023-04-09T09:42:07.629Z,67.05
2023-04-09T09:43:09.509Z,68.09
2023-04-09T09:44:12.976Z,64.74
2023-04-09T09:45:20.575Z,67.66
2023-04-09T09:46:22.986Z,68.63
2023-04-09T09:47:25.497Z,67.95
2023-04-09T09:48:28.388Z,67.03
2023-04-09T09:49:30.077Z,67.95
2023-04-09T09:50:34.684Z,67.49
2023-04-09T09:51:39.302Z,67.18
2023-04-09T09:52:45.600Z,66.66
2023-04-09T09:53:51.948Z,65.17
2023-04-09T09:54:55.873Z,65.53
2023-04-09T09:56:00.093Z,65.84
2023-04-09T09:57:06.562Z,64.49
2023-04-09T09:58:24.685Z,63.55
2023-04-09T09:59:32.099Z,60.45
2023-04-09T10:00:35.770Z,63.42
2023-04-09T10:01:38.143Z,64.82
2023-04-09T10:02:56.825Z,64.59
2023-04-09T10:04:00.557Z,67.22
2023-04-09T10:05:05.921Z,65.07
2023-04-09T10:06:09.109Z,64.66
2023-04-09T10:07:11.097Z,65.32
2023-04-09T10:08:13.217Z,62.88
2023-04-09T10:09:15.628Z,62.60
2023-04-09T10:10:17.581Z,63.19
2023-04-09T10:11:20.440Z,63.06
2023-04-09T10:12:26.297Z,64.50
2023-04-09T10:13:37.660Z,62.20
2023-04-09T10:14:40.501Z,61.73
2023-04-09T10:15:44.697Z,62.94
2023-04-09T10:16:48.102Z,64.06
2023-04-09T10:17:50.736Z,61.97
2023-04-09T10:18:53.718Z,60.97
2023-04-09T10:20:05.356Z,60.65
2023-04-09T10:21:14.565Z,63.45
2023-04-09T10:22:20.373Z,62.94
2023-04-09T10:23:34.143Z,63.01
2023-04-09T10:24:36.681Z,60.31
2023-04-09T10:25:38.442Z,59.75
2023-04-09T10:26:41.999Z,61.52
2023-04-09T10:27:48.970Z,59.97
2023-04-09T10:29:09.655Z,60.37
2023-04-09T10:30:31.387Z,59.84
2023-04-09T10:31:52.906Z,59.39
2023-04-09T10:32:54.934Z,59.67
2023-04-09T10:34:04.278Z,59.42
2023-04-09T10:35:06.988Z,57.79
2023-04-09T10:36:12.947Z,58.68
2023-04-09T10:37:21.554Z,58.46
2023-04-09T10:38:36.059Z,57.20
2023-04-09T10:39:45.087Z,58.65
2023-04-09T10:40:51.338Z,57.59
2023-04-09T10:42:32.728Z,57.45
2023-04-09T10:43:36.616Z,59.29
2023-04-09T10:44:41.501Z,58.33
2023-04-09T10:45:43.116Z,58.64
2023-04-09T10:46:46.138Z,61.03
2023-04-09T10:47:51.554Z,60.98
2023-04-09T10:49:38.680Z,58.59
2023-04-09T10:50:44.228Z,56.71
2023-04-09T10:51:51.041Z,57.97
2023-04-09T10:52:56.418Z,57.77
2023-04-09T10:53:58.138Z,58.53
2023-04-09T10:54:59.781Z,59.81
2023-04-09T10:56:01.482Z,59.57
2023-04-09T10:57:09.049Z,60.66
2023-04-09T10:58:13.208Z,57.98
2023-04-09T10:59:15.577Z,57.42
2023-04-09T11:00:18.909Z,59.74
2023-04-09T11:01:24.267Z,58.83
2023-04-09T11:02:31.975Z,57.88
2023-04-09T11:03:41.520Z,57.93
2023-04-09T11:05:01.176Z,59.66
2023-04-09T11:06:09.427Z,57.89
2023-04-09T11:07:11.557Z,57.53
2023-04-09T11:08:14.298Z,58.08
2023-04-09T11:09:15.908Z,57.71
2023-04-09T11:10:17.601Z,56.73
2023-04-09T11:11:25.428Z,55.42
2023-04-09T11:12:27.023Z,55.12
2023-04-09T11:13:30.519Z,55.01
2023-04-09T11:14:33.915Z,55.01
2023-04-09T11:15:36.793Z,54.45
2023-04-09T11:16:38.390Z,54.18
2023-04-09T11:17:40.811Z,53.57
2023-04-09T11:18:42.409Z,56.02
2023-04-09T11:19:44.589Z,56.78
2023-04-09T11:20:46.394Z,56.47
2023-04-09T11:21:48.500Z,56.43
2023-04-09T11:22:51.772Z,58.49
2023-04-09T11:23:53.717Z,59.49
2023-04-09T11:24:55.523Z,58.60
2023-04-09T11:25:57.200Z,59.85
2023-04-09T11:27:02.110Z,61.88
2023-04-09T11:28:05.141Z,61.83
2023-04-09T11:29:10.417Z,60.61
2023-04-09T11:30:12.258Z,61.46
2023-04-09T11:31:13.833Z,62.11
2023-04-09T11:32:15.440Z,61.98
2023-04-09T11:33:19.626Z,60.90
2023-04-09T11:34:21.723Z,63.50
2023-04-09T11:35:23.839Z,63.03
2023-04-09T11:36:27.623Z,64.18
2023-04-09T11:37:29.364Z,65.03
2023-04-09T11:38:31.884Z,64.68
2023-04-09T11:39:37.148Z,64.99
2023-04-09T11:40:48.095Z,63.20
2023-04-09T11:41:50.242Z,65.84
2023-04-09T11:42:53.805Z,67.38
2023-04-09T11:43:55.339Z,65.06
2023-04-09T11:44:57.282Z,66.92
2023-04-09T11:45:59.500Z,66.68
2023-04-09T11:47:01.188Z,67.95
2023-04-09T11:48:03.192Z,66.43
2023-04-09T11:49:05.669Z,67.54
2023-04-09T11:50:08.771Z,67.43
2023-04-09T11:51:10.519Z,66.83
2023-04-09T11:52:12.141Z,67.60
2023-04-09T11:53:20.910Z,67.55
2023-04-09T11:54:22.517Z,67.53
2023-04-09T11:55:26.120Z,68.04
2023-04-09T11:56:31.124Z,68.18
2023-04-09T11:57:36.625Z,69.31
2023-04-09T11:58:38.204Z,71.31
2023-04-09T11:59:41.052Z,70.04
2023-04-09T12:00:42.779Z,70.85
2023-04-09T12:01:49.885Z,72.87
2023-04-09T12:02:59.000Z,72.87
2023-04-09T12:04:01.599Z,72.85
2023-04-09T12:05:04.578Z,73.17
2023-04-09T12:06:07.201Z,73.12
2023-04-09T12:07:10.047Z,74.23
2023-04-09T12:08:12.005Z,74.77
2023-04-09T12:09:14.294Z,73.30
2023-04-09T12:10:16.064Z,73.43
2023-04-09T12:11:17.593Z,73.80
2023-04-09T12:12:20.023Z,74.98
2023-04-09T12:13:21.802Z,74.04
2023-04-09T12:14:23.385Z,72.33
2023-04-09T12:15:25.488Z,73.91
2023-04-09T12:16:27.217Z,74.70
2023-04-09T12:17:28.856Z,73.97
2023-04-09T12:18:30.821Z,73.45
2023-04-09T12:19:32.357Z,71.96
2023-04-09T12:20:42.375Z,71.56
2023-04-09T12:21:55.830Z,72.09
2023-04-09T12:23:00.201Z,72.21
2023-04-09T12:24:01.769Z,72.06
2023-04-09T12:25:03.387Z,72.30
2023-04-09T12:26:05.036Z,71.59
2023-04-09T12:27:06.662Z,72.78
2023-04-09T12:28:13.727Z,71.53
2023-04-09T12:29:17.168Z,71.12
2023-04-09T12:30:18.739Z,71.18
2023-04-09T12:31:20.831Z,72.37
2023-04-09T12:32:22.445Z,73.11
2023-04-09T12:33:24.012Z,71.73
2023-04-09T12:34:27.319Z,72.26
2023-04-09T12:35:29.374Z,73.26
2023-04-09T12:36:31.087Z,72.44
2023-04-09T12:37:32.684Z,73.54
2023-04-09T12:38:34.232Z,73.17
2023-04-09T12:39:36.330Z,72.09
2023-04-09T12:40:39.285Z,71.08
2023-04-09T12:41:40.921Z,71.80
2023-04-09T12:42:44.447Z,72.33
2023-04-09T12:43:47.186Z,71.06
2023-04-09T12:44:48.823Z,71.41
2023-04-09T12:45:50.421Z,73.01
2023-04-09T12:46:52.003Z,71.21
2023-04-09T12:47:53.806Z,70.85
2023-04-09T12:48:55.820Z,70.44
2023-04-09T12:49:57.444Z,70.29
2023-04-09T12:50:58.984Z,71.07
2023-04-09T12:52:00.696Z,72.85
2023-04-09T12:53:02.289Z,72.23
2023-04-09T12:54:04.198Z,72.40
2023-04-09T12:55:06.657Z,71.15
2023-04-09T12:56:08.625Z,71.99
2023-04-09T12:57:10.312Z,71.80
2023-04-09T12:58:11.845Z,71.51
2023-04-09T12:59:13.412Z,71.29
2023-04-09T13:00:15.753Z,71.60
2023-04-09T13:01:17.991Z,73.12
2023-04-09T13:02:21.636Z,72.23
2023-04-09T13:03:24.162Z,73.64
2023-04-09T13:04:25.839Z,74.71
2023-04-09T13:05:27.484Z,75.15
2023-04-09T13:06:29.023Z,76.66
2023-04-09T13:07:30.551Z,77.57
2023-04-09T13:08:32.052Z,78.12
2023-04-09T13:09:35.246Z,79.91
2023-04-09T13:10:36.949Z,80.45
2023-04-09T13:11:38.482Z,79.50
2023-04-09T13:12:40.096Z,80.53
2023-04-09T13:13:42.761Z,80.35
2023-04-09T13:14:46.658Z,82.57
2023-04-09T13:15:48.325Z,82.64
2023-04-09T13:16:50.199Z,81.87
2023-04-09T13:17:51.833Z,81.98
2023-04-09T13:18:53.532Z,82.10
2023-04-09T13:19:55.260Z,83.98
2023-04-09T13:20:56.934Z,83.18
2023-04-09T13:21:58.536Z,84.04
2023-04-09T13:23:00.300Z,84.25
2023-04-09T13:24:03.783Z,84.03
2023-04-09T13:25:05.866Z,84.14
2023-04-09T13:26:07.438Z,84.98
2023-04-09T13:27:09.714Z,85.52
2023-04-09T13:28:11.434Z,88.34
2023-04-09T13:29:13.085Z,86.35
2023-04-09T13:30:15.017Z,86.25
2023-04-09T13:31:16.608Z,85.78
2023-04-09T13:32:21.016Z,85.44
2023-04-09T13:33:22.573Z,86.46
2023-04-09T13:34:24.756Z,84.66
2023-04-09T13:35:26.299Z,84.47